M I D A S
Marine Information and Data Acquisition System
Tripno 1118 of the Zeeleeuw from 2006-06-29 07:09:02 to 2006-06-29 13:32:01
Back to CruiseResearch ActivitiesStationsMapUnderway DataData graphs

EquipmentUnitsComments
TimeDGPSUTC
LatitudeDGPSDM.mWGS84
LongitudeDGPSDM.mWGS84
SpeedMeteo Stationm/sRelative wind speed
DirectionMeteo StationdegRelative wind direction
TemperatureMeteo Stationdeg CelciusAir temperature
PressureMeteo StationPaAtmospheric pressure
HumidityMeteo Station%Relative humidity
Missing or incorrect values are displayed as -999
Metereological data collected by the RV Zeeleeuw from 2006-06-29 07:06:38 to 2006-06-29 13:42:49
Time Latitude Longitude Speed Direction Temperature Pressure Humidity
2006-06-29 07:07 51°13.616 2°56.048 0.7 319 16.8 102280 71
2006-06-29 07:08 51°13.642 2°55.961 0.3 357 16.9 102280 71
2006-06-29 07:09 51°13.678 2°55.842 2.3 30 16.8 102280 71
2006-06-29 07:10 51°13.694 2°55.766 1.3 316 16.7 102280 71
2006-06-29 07:11 51°13.703 2°55.771 1.5 327 16.7 102280 72
2006-06-29 07:12 51°13.699 2°55.76 1.9 350 16.7 102280 73
2006-06-29 07:13 51°13.734 2°55.73 4.1 355 16.7 102280 72
2006-06-29 07:14 51°13.832 2°55.628 4.1 353 16.4 102280 71
2006-06-29 07:15 51°13.959 2°55.537 4.2 348 16.1 102280 73
2006-06-29 07:16 51°14.095 2°55.442 5.4 345 15.9 102280 75
2006-06-29 07:17 51°14.226 2°55.313 6 343 15.7 102280 75
2006-06-29 07:18 51°14.351 2°55.094 6.4 334 15.7 102270 77
2006-06-29 07:19 51°14.456 2°54.802 5.7 347 15.6 102270 77
2006-06-29 07:20 51°14.45 2°54.444 4.2 343 15.4 102280 77
2006-06-29 07:21 51°14.354 2°54.114 4.5 334 15.4 102270 78
2006-06-29 07:22 51°14.225 2°53.809 3.6 331 15.4 102270 78
2006-06-29 07:23 51°14.104 2°53.503 4.4 334 15.5 102270 78
2006-06-29 07:24 51°13.981 2°53.182 4.4 341 15.5 102270 79
2006-06-29 07:25 51°13.859 2°52.873 4.3 337 15.5 102270 79
2006-06-29 07:26 51°13.73 2°52.574 4.2 339 15.6 102270 78
2006-06-29 07:27 51°13.623 2°52.231 5.1 342 15.5 102280 78
2006-06-29 07:28 51°13.518 2°51.9 4 341 15.5 102270 79
2006-06-29 07:29 51°13.401 2°51.578 4.2 335 15.5 102270 79
2006-06-29 07:30 51°13.293 2°51.257 4.1 341 15.5 102270 79
2006-06-29 07:31 51°13.168 2°50.937 3.8 343 15.5 102270 79
2006-06-29 07:32 51°13.059 2°50.616 4.7 339 15.4 102260 79
2006-06-29 07:33 51°12.933 2°50.296 4 345 15.5 102260 79
2006-06-29 07:34 51°12.822 2°49.975 3.8 339 15.5 102260 79
2006-06-29 07:35 51°12.711 2°49.648 3.8 344 15.4 102260 79
2006-06-29 07:36 51°12.598 2°49.322 3.9 336 15.5 102260 80
2006-06-29 07:37 51°12.484 2°49.004 3.7 338 15.5 102260 79
2006-06-29 07:38 51°12.362 2°48.679 4.4 340 15.5 102260 79
2006-06-29 07:39 51°12.248 2°48.356 3.8 341 15.5 102270 79
2006-06-29 07:40 51°12.132 2°48.034 4.2 341 15.5 102270 79
2006-06-29 07:41 51°12.016 2°47.71 4.1 338 15.5 102270 79
2006-06-29 07:42 51°11.899 2°47.382 3.7 339 15.5 102270 79
2006-06-29 07:43 51°11.785 2°47.052 3.9 340 15.5 102270 79
2006-06-29 07:44 51°11.661 2°46.733 3.5 336 15.5 102270 79
2006-06-29 07:45 51°11.552 2°46.407 3.6 336 15.5 102270 79
2006-06-29 07:46 51°11.453 2°46.056 4.8 344 15.5 102270 79
2006-06-29 07:47 51°11.352 2°45.717 3.7 342 15.5 102270 78
2006-06-29 07:48 51°11.276 2°45.364 4.5 342 15.5 102280 79
2006-06-29 07:49 51°11.21 2°45.007 4.5 343 15.5 102270 80
2006-06-29 07:50 51°11.138 2°44.641 4.7 343 15.5 102280 80
2006-06-29 07:51 51°11.064 2°44.28 3.9 339 15.5 102280 80
2006-06-29 07:52 51°10.992 2°43.92 4.8 340 15.5 102280 79
2006-06-29 07:53 51°10.92 2°43.564 4.4 347 15.5 102280 78
2006-06-29 07:54 51°10.837 2°43.217 4 341 15.4 102280 78
2006-06-29 07:55 51°10.755 2°42.868 4.1 340 15.4 102280 79
2006-06-29 07:56 51°10.673 2°42.518 4.3 345 15.5 102280 79
2006-06-29 07:57 51°10.595 2°42.165 3.9 340 15.4 102280 79
2006-06-29 07:58 51°10.513 2°41.822 4.2 346 15.5 102280 80
2006-06-29 07:59 51°10.431 2°41.465 4.4 345 15.5 102280 80
2006-06-29 08:00 51°10.347 2°41.117 3.7 348 15.4 102280 80
2006-06-29 08:01 51°10.267 2°40.766 3.7 351 15.3 102280 80
2006-06-29 08:02 51°10.191 2°40.414 3.7 345 15.4 102280 80
2006-06-29 08:03 51°10.104 2°40.069 4.8 348 15.5 102280 80
2006-06-29 08:04 51°10.044 2°39.718 5 346 15.4 102280 80
2006-06-29 08:05 51°9.98 2°39.355 4.7 347 15.4 102280 80
2006-06-29 08:06 51°9.918 2°38.998 4.3 347 15.4 102280 81
2006-06-29 08:07 51°9.859 2°38.637 4.5 352 15.3 102280 82
2006-06-29 08:08 51°9.802 2°38.274 5.3 349 15.3 102280 81
2006-06-29 08:09 51°9.752 2°37.914 3.8 344 15.3 102280 82
2006-06-29 08:10 51°9.71 2°37.538 5.2 352 15.3 102280 82
2006-06-29 08:11 51°9.67 2°37.167 4.4 346 15.3 102280 82
2006-06-29 08:12 51°9.63 2°36.795 4.7 346 15.3 102290 81
2006-06-29 08:13 51°9.609 2°36.42 5.4 348 15.3 102280 81
2006-06-29 08:14 51°9.623 2°36.045 6.3 349 15.4 102290 82
2006-06-29 08:15 51°9.705 2°35.702 8.1 344 15.3 102280 81
2006-06-29 08:16 51°9.872 2°35.472 9.1 341 15.4 102270 81
2006-06-29 08:17 51°10.071 2°35.375 9.2 338 15.6 102270 81
2006-06-29 08:18 51°10.257 2°35.464 10.3 334 15.7 102280 80
2006-06-29 08:19 51°10.434 2°35.602 10.4 335 15.8 102280 80
2006-06-29 08:20 51°10.608 2°35.742 9.9 334 15.8 102280 79
2006-06-29 08:21 51°10.788 2°35.863 9.9 334 15.8 102280 79
2006-06-29 08:22 51°10.955 2°36.02 10.3 332 15.9 102280 79
2006-06-29 08:23 51°11.122 2°36.179 10.4 332 15.9 102280 79
2006-06-29 08:24 51°11.285 2°36.346 9.7 332 15.9 102270 78
2006-06-29 08:25 51°11.453 2°36.501 10 332 16 102280 79
2006-06-29 08:26 51°11.617 2°36.661 10.4 331 16 102280 79
2006-06-29 08:27 51°11.781 2°36.815 10.5 332 16 102280 79
2006-06-29 08:28 51°11.942 2°36.983 10.6 332 16 102280 78
2006-06-29 08:29 51°12.109 2°37.149 10.5 332 16.1 102280 79
2006-06-29 08:30 51°12.274 2°37.308 10 332 16.1 102280 78
2006-06-29 08:31 51°12.438 2°37.474 10.9 333 16.1 102280 79
2006-06-29 08:32 51°12.605 2°37.633 10.1 331 16.1 102280 78
2006-06-29 08:33 51°12.771 2°37.796 10.7 333 16.1 102280 77
2006-06-29 08:34 51°12.939 2°37.95 11.5 331 16.1 102280 76
2006-06-29 08:35 51°13.108 2°38.103 11.1 332 16.1 102280 76
2006-06-29 08:36 51°13.274 2°38.264 10.6 332 16.1 102280 76
2006-06-29 08:37 51°13.445 2°38.411 11.1 332 16.2 102280 76
2006-06-29 08:38 51°13.612 2°38.565 11.5 333 16.2 102270 76
2006-06-29 08:39 51°13.776 2°38.715 11.1 332 16.2 102280 77
2006-06-29 08:40 51°13.954 2°38.843 12.2 336 16.2 102280 77
2006-06-29 08:41 51°14.152 2°38.848 10.9 344 16.1 102280 77
2006-06-29 08:42 51°14.353 2°38.804 11.8 339 16.1 102280 77
2006-06-29 08:43 51°14.554 2°38.84 11 335 16.1 102280 77
2006-06-29 08:44 51°14.746 2°38.896 11.6 336 16.2 102290 78
2006-06-29 08:45 51°14.941 2°38.963 11.4 336 16.1 102280 77
2006-06-29 08:46 51°15.137 2°39.039 10.5 338 16.1 102270 77
2006-06-29 08:47 51°15.328 2°39.127 11 338 16.1 102280 78
2006-06-29 08:48 51°15.519 2°39.211 10.9 336 16.1 102280 78
2006-06-29 08:49 51°15.708 2°39.302 11.7 337 16.2 102280 79
2006-06-29 08:50 51°15.894 2°39.389 11.1 340 16.1 102280 78
2006-06-29 08:51 51°16.087 2°39.475 10.9 336 16.1 102280 78
2006-06-29 08:52 51°16.278 2°39.558 12 335 16.2 102280 78
2006-06-29 08:53 51°16.467 2°39.639 11.1 336 16.2 102280 78
2006-06-29 08:54 51°16.658 2°39.714 10.9 335 16.2 102280 78
2006-06-29 08:55 51°16.845 2°39.788 11.4 337 16.1 102270 78
2006-06-29 08:56 51°17.031 2°39.876 10.7 338 16.1 102270 78
2006-06-29 08:57 51°17.211 2°39.987 10.9 334 16.1 102280 78
2006-06-29 08:58 51°17.389 2°40.101 10.7 336 16.1 102280 78
2006-06-29 08:59 51°17.562 2°40.228 11.8 336 16.1 102280 78
2006-06-29 09:00 51°17.738 2°40.348 11.7 335 16.1 102280 78
2006-06-29 09:01 51°17.911 2°40.472 10.6 335 16.1 102280 77
2006-06-29 09:02 51°18.085 2°40.596 11 334 16.2 102270 78
2006-06-29 09:03 51°18.262 2°40.723 10.9 337 16.2 102280 77
2006-06-29 09:04 51°18.431 2°40.844 10.6 335 16.2 102280 77
2006-06-29 09:05 51°18.605 2°40.971 11.2 334 16.1 102280 77
2006-06-29 09:06 51°18.776 2°41.089 11 336 16.2 102280 77
2006-06-29 09:07 51°18.945 2°41.214 10.3 336 16.2 102280 78
2006-06-29 09:08 51°19.119 2°41.345 11.6 337 16.1 102280 77
2006-06-29 09:09 51°19.29 2°41.468 11.8 335 16.1 102280 77
2006-06-29 09:10 51°19.466 2°41.595 11.5 336 16.2 102280 77
2006-06-29 09:11 51°19.639 2°41.724 11.5 336 16.2 102280 77
2006-06-29 09:12 51°19.81 2°41.852 11.9 337 16.2 102270 76
2006-06-29 09:13 51°19.982 2°41.976 11.4 337 16.2 102270 76
2006-06-29 09:14 51°20.137 2°42.128 12.1 327 16.3 102280 76
2006-06-29 09:15 51°20.136 2°42.402 10 316 16.3 102280 77
2006-06-29 09:16 51°20.018 2°42.643 8.1 21 16.3 102280 77
2006-06-29 09:17 51°19.805 2°42.706 5.2 20 16.3 102290 76
2006-06-29 09:18 51°19.577 2°42.642 6.2 21 16.4 102300 77
2006-06-29 09:19 51°19.347 2°42.57 5.2 22 16.4 102300 76
2006-06-29 09:20 51°19.119 2°42.487 4.5 27 16.5 102290 76
2006-06-29 09:21 51°18.892 2°42.415 4.8 23 16.6 102300 75
2006-06-29 09:22 51°18.665 2°42.335 5.3 21 16.6 102300 75
2006-06-29 09:23 51°18.438 2°42.259 5.5 25 16.7 102290 75
2006-06-29 09:24 51°18.215 2°42.183 5.9 23 16.7 102290 75
2006-06-29 09:25 51°17.985 2°42.108 4.8 25 16.7 102290 75
2006-06-29 09:26 51°17.757 2°42.04 4.3 20 16.7 102290 75
2006-06-29 09:27 51°17.53 2°41.97 4.8 29 16.8 102290 75
2006-06-29 09:28 51°17.304 2°41.893 5.4 22 16.8 102290 75
2006-06-29 09:29 51°17.075 2°41.821 4.5 20 16.8 102290 75
2006-06-29 09:30 51°16.848 2°41.754 5 27 16.8 102290 74
2006-06-29 09:31 51°16.621 2°41.683 5.2 26 16.8 102290 74
2006-06-29 09:32 51°16.395 2°41.621 4.4 22 16.8 102290 74
2006-06-29 09:33 51°16.17 2°41.562 3.9 29 16.8 102300 74
2006-06-29 09:34 51°15.945 2°41.504 4.7 22 16.9 102290 75
2006-06-29 09:35 51°15.721 2°41.448 4.4 21 16.9 102300 75
2006-06-29 09:36 51°15.499 2°41.417 5 26 16.9 102290 75
2006-06-29 09:37 51°15.273 2°41.388 5.8 21 16.9 102290 74
2006-06-29 09:38 51°15.042 2°41.396 5.6 243 16.9 102290 74
2006-06-29 09:39 51°14.815 2°41.39 5.4 26 17 102290 75
2006-06-29 09:40 51°14.592 2°41.418 5.8 21 17 102290 74
2006-06-29 09:41 51°14.371 2°41.471 5.6 242 17 102290 75
2006-06-29 09:42 51°14.176 2°41.603 8.5 29 16.9 102280 75
2006-06-29 09:43 51°14.093 2°41.864 11.2 319 16.8 102270 75
2006-06-29 09:44 51°14.132 2°42.14 12.2 323 16.9 102270 76
2006-06-29 09:45 51°14.181 2°42.418 11.6 325 16.8 102250 76
2006-06-29 09:46 51°14.231 2°42.696 12.3 323 16.8 102260 75
2006-06-29 09:47 51°14.279 2°42.976 12.5 323 16.9 102260 75
2006-06-29 09:48 51°14.326 2°43.257 11.8 324 16.9 102260 74
2006-06-29 09:49 51°14.38 2°43.536 11.7 327 16.9 102260 75
2006-06-29 09:50 51°14.438 2°43.812 12.4 324 16.9 102250 74
2006-06-29 09:51 51°14.488 2°44.091 12.6 324 16.9 102260 74
2006-06-29 09:52 51°14.538 2°44.37 12 323 17 102260 74
2006-06-29 09:53 51°14.59 2°44.649 12.5 325 17 102260 74
2006-06-29 09:54 51°14.639 2°44.931 12.1 321 17 102260 74
2006-06-29 09:55 51°14.69 2°45.216 12.2 324 17 102260 74
2006-06-29 09:56 51°14.739 2°45.501 12.5 323 17 102260 74
2006-06-29 09:57 51°14.795 2°45.779 13.2 321 17.1 102260 74
2006-06-29 09:58 51°14.842 2°46.069 12.4 322 17.1 102260 74
2006-06-29 09:59 51°14.895 2°46.35 12.6 321 17.1 102260 75
2006-06-29 10:00 51°14.941 2°46.636 13.1 319 17.1 102260 76
2006-06-29 10:01 51°14.989 2°46.915 11.5 317 17 102260 77
2006-06-29 10:02 51°15.037 2°47.205 12.5 321 17 102260 76
2006-06-29 10:03 51°15.087 2°47.494 12.5 321 17 102250 76
2006-06-29 10:04 51°15.142 2°47.777 12.3 319 17 102250 77
2006-06-29 10:05 51°15.185 2°48.062 12.5 320 17 102250 78
2006-06-29 10:06 51°15.229 2°48.357 12.2 321 17 102250 78
2006-06-29 10:07 51°15.275 2°48.649 12.9 319 17 102250 78
2006-06-29 10:08 51°15.321 2°48.935 12.2 319 17 102240 78
2006-06-29 10:09 51°15.365 2°49.222 11.9 321 17 102250 78
2006-06-29 10:10 51°15.411 2°49.51 12.4 321 16.9 102250 78
2006-06-29 10:11 51°15.454 2°49.798 12.3 318 16.9 102240 79
2006-06-29 10:12 51°15.5 2°50.079 12 320 16.9 102250 78
2006-06-29 10:13 51°15.542 2°50.358 11.8 321 16.9 102250 78
2006-06-29 10:14 51°15.589 2°50.635 11.9 320 17 102260 79
2006-06-29 10:15 51°15.642 2°50.91 12.1 320 17 102250 79
2006-06-29 10:16 51°15.697 2°51.186 12.1 320 16.9 102260 79
2006-06-29 10:17 51°15.745 2°51.466 11.9 320 16.9 102250 78
2006-06-29 10:18 51°15.801 2°51.744 12.3 322 17 102260 79
2006-06-29 10:19 51°15.855 2°52.023 11.9 320 17 102260 79
2006-06-29 10:20 51°15.908 2°52.301 11.2 322 17 102250 78
2006-06-29 10:21 51°15.96 2°52.579 12.1 321 17 102250 79
2006-06-29 10:22 51°16.009 2°52.856 12.7 320 17 102260 78
2006-06-29 10:23 51°16.058 2°53.133 12.6 321 17 102260 77
2006-06-29 10:24 51°16.101 2°53.391 10.8 318 17 102250 77
2006-06-29 10:25 51°16.124 2°53.561 9.4 319 17 102260 77
2006-06-29 10:26 51°16.146 2°53.702 9.3 318 17 102270 77
2006-06-29 10:27 51°16.157 2°53.815 8.6 317 17 102270 78
2006-06-29 10:28 51°16.163 2°53.917 9 316 17 102270 77
2006-06-29 10:29 51°16.169 2°54.007 8.5 317 17 102270 76
2006-06-29 10:30 51°16.175 2°54.097 8.7 317 17 102270 76
2006-06-29 10:31 51°16.18 2°54.188 8.7 25 17 102270 76
2006-06-29 10:32 51°16.189 2°54.275 8.5 27 17 102270 77
2006-06-29 10:33 51°16.196 2°54.368 8.4 22 16.9 102270 76
2006-06-29 10:34 51°16.202 2°54.459 8.4 316 16.9 102270 77
2006-06-29 10:35 51°16.209 2°54.548 8.4 316 17 102270 77
2006-06-29 10:36 51°16.215 2°54.635 7.8 24 17 102270 76
2006-06-29 10:37 51°16.222 2°54.717 8 317 17.1 102270 76
2006-06-29 10:38 51°16.245 2°54.783 8.3 328 17.1 102270 76
2006-06-29 10:39 51°16.292 2°54.775 7.9 347 17.1 102270 76
2006-06-29 10:40 51°16.309 2°54.657 5.4 24 17 102270 77
2006-06-29 10:41 51°16.272 2°54.537 5 23 16.9 102290 78
2006-06-29 10:42 51°16.222 2°54.457 2.9 27 16.9 102280 79
2006-06-29 10:43 51°16.168 2°54.391 3.4 26 16.7 102290 78
2006-06-29 10:44 51°16.131 2°54.276 6.5 14 16.8 102280 79
2006-06-29 10:45 51°16.158 2°54.173 7.1 344 16.8 102280 79
2006-06-29 10:46 51°16.182 2°54.18 7.5 24 16.8 102270 80
2006-06-29 10:47 51°16.219 2°54.242 8.8 326 16.9 102270 80
2006-06-29 10:48 51°16.227 2°54.259 6.6 326 16.9 102270 78
2006-06-29 10:49 51°16.221 2°54.255 7.1 328 17 102270 78
2006-06-29 10:50 51°16.215 2°54.249 7.4 327 17 102280 78
2006-06-29 10:51 51°16.209 2°54.244 7.1 326 17 102270 77
2006-06-29 10:52 51°16.204 2°54.242 6.8 324 17.1 102270 78
2006-06-29 10:53 51°16.2 2°54.239 7 334 17.1 102270 77
2006-06-29 10:54 51°16.202 2°54.227 7.6 340 17.1 102270 77
2006-06-29 10:55 51°16.207 2°54.208 6.7 338 17.1 102270 77
2006-06-29 10:56 51°16.212 2°54.188 6.7 342 17.1 102270 78
2006-06-29 10:57 51°16.217 2°54.172 6.1 338 17.1 102270 77
2006-06-29 10:58 51°16.221 2°54.157 7.5 338 17.1 102270 77
2006-06-29 10:59 51°16.226 2°54.144 6.2 333 17.1 102270 77
2006-06-29 11:00 51°16.23 2°54.132 6.7 333 17.1 102270 77
2006-06-29 11:01 51°16.234 2°54.119 7 335 17 102280 77
2006-06-29 11:02 51°16.24 2°54.104 6.8 335 17 102280 78
2006-06-29 11:03 51°16.247 2°54.084 7.3 338 17 102280 78
2006-06-29 11:04 51°16.254 2°54.062 7.1 337 17 102280 77
2006-06-29 11:05 51°16.261 2°54.044 7.6 331 17.1 102280 77
2006-06-29 11:06 51°16.265 2°54.031 6.7 334 17 102280 77
2006-06-29 11:07 51°16.269 2°54.022 7.2 331 17.1 102280 77
2006-06-29 11:08 51°16.272 2°54.015 7 330 17 102270 76
2006-06-29 11:09 51°16.276 2°54.008 7.5 331 17 102280 76
2006-06-29 11:10 51°16.311 2°54 9.7 342 17 102270 76
2006-06-29 11:11 51°16.407 2°53.946 10.3 345 17 102260 75
2006-06-29 11:12 51°16.509 2°53.835 10.3 347 16.8 102260 77
2006-06-29 11:13 51°16.595 2°53.679 10.6 355 16.7 102260 78
2006-06-29 11:14 51°16.673 2°53.501 8.7 356 16.6 102270 79
2006-06-29 11:15 51°16.756 2°53.33 9.4 356 16.5 102270 78
2006-06-29 11:16 51°16.838 2°53.157 9.5 353 16.6 102270 80
2006-06-29 11:17 51°16.92 2°52.99 9.4 354 16.6 102270 79
2006-06-29 11:18 51°17.004 2°52.826 10.1 355 16.5 102260 79
2006-06-29 11:19 51°17.094 2°52.676 10 351 16.5 102260 80
2006-06-29 11:20 51°17.19 2°52.543 10.8 351 16.5 102260 79
2006-06-29 11:21 51°17.289 2°52.412 10.2 351 16.5 102260 79
2006-06-29 11:22 51°17.386 2°52.278 9.4 351 16.5 102260 79
2006-06-29 11:23 51°17.484 2°52.148 9.7 350 16.5 102260 80
2006-06-29 11:24 51°17.582 2°52.014 10.2 350 16.5 102260 80
2006-06-29 11:25 51°17.679 2°51.886 10.7 349 16.4 102260 80
2006-06-29 11:26 51°17.78 2°51.752 9.8 351 16.4 102260 80
2006-06-29 11:27 51°17.876 2°51.619 10.2 352 16.4 102270 81
2006-06-29 11:28 51°17.976 2°51.482 9.7 350 16.4 102270 81
2006-06-29 11:29 51°18.079 2°51.356 9.5 349 16.4 102270 82
2006-06-29 11:30 51°18.181 2°51.229 10.9 350 16.4 102270 81
2006-06-29 11:31 51°18.294 2°51.172 10.7 337 16.4 102270 80
2006-06-29 11:32 51°18.396 2°51.232 10.8 325 16.6 102280 80
2006-06-29 11:33 51°18.459 2°51.374 9.5 319 16.7 102270 79
2006-06-29 11:34 51°18.516 2°51.549 11.3 320 16.7 102260 78
2006-06-29 11:35 51°18.586 2°51.76 10.7 320 16.8 102250 77
2006-06-29 11:36 51°18.658 2°51.985 12.2 320 16.9 102260 76
2006-06-29 11:37 51°18.732 2°52.209 11.5 322 16.9 102260 76
2006-06-29 11:38 51°18.803 2°52.429 11.2 322 17 102270 77
2006-06-29 11:39 51°18.876 2°52.649 11.8 321 17 102260 76
2006-06-29 11:40 51°18.945 2°52.872 11.8 322 17 102260 77
2006-06-29 11:41 51°19.015 2°53.094 12.3 320 17 102260 76
2006-06-29 11:42 51°19.083 2°53.315 11.9 320 17 102260 75
2006-06-29 11:43 51°19.156 2°53.54 12.8 320 17 102260 74
2006-06-29 11:44 51°19.227 2°53.762 12.4 320 17 102250 73
2006-06-29 11:45 51°19.294 2°53.983 12 322 17 102260 73
2006-06-29 11:46 51°19.363 2°54.205 11.9 322 17.1 102260 73
2006-06-29 11:47 51°19.433 2°54.432 12.2 321 17.1 102250 73
2006-06-29 11:48 51°19.501 2°54.657 12.4 323 17.1 102250 72
2006-06-29 11:49 51°19.569 2°54.877 12.4 322 17.1 102250 72
2006-06-29 11:50 51°19.639 2°55.108 12.2 322 17.1 102250 71
2006-06-29 11:51 51°19.711 2°55.334 12.4 321 17.1 102250 71
2006-06-29 11:52 51°19.781 2°55.563 12.2 322 17.1 102250 70
2006-06-29 11:53 51°19.852 2°55.79 12.3 321 17.2 102250 72
2006-06-29 11:54 51°19.926 2°56.014 13 324 17.1 102250 71
2006-06-29 11:55 51°20.034 2°56.194 12.5 327 17.1 102250 72
2006-06-29 11:56 51°20.142 2°56.374 13 325 17.1 102250 73
2006-06-29 11:57 51°20.262 2°56.547 12.4 328 17 102250 73
2006-06-29 11:58 51°20.374 2°56.721 12.6 329 16.9 102250 73
2006-06-29 11:59 51°20.492 2°56.897 12.8 327 16.9 102250 73
2006-06-29 12:00 51°20.603 2°57.07 12.6 328 16.9 102250 73
2006-06-29 12:01 51°20.717 2°57.248 13 327 16.9 102250 73
2006-06-29 12:02 51°20.833 2°57.419 12.1 325 16.8 102250 74
2006-06-29 12:03 51°20.833 2°57.652 9.9 243 16.8 102250 75
2006-06-29 12:04 51°20.683 2°57.81 7.6 247 16.8 102270 74
2006-06-29 12:05 51°20.508 2°57.892 5.6 259 16.8 102280 74
2006-06-29 12:06 51°20.328 2°57.887 3 23 16.8 102280 75
2006-06-29 12:07 51°20.16 2°57.798 2 23 16.8 102280 75
2006-06-29 12:08 51°20.02 2°57.62 4.3 26 16.8 102270 75
2006-06-29 12:09 51°19.919 2°57.391 4.3 27 16.7 102270 74
2006-06-29 12:10 51°19.829 2°57.148 5.5 21 16.7 102270 75
2006-06-29 12:11 51°19.756 2°56.902 5.5 26 16.7 102270 76
2006-06-29 12:12 51°19.679 2°56.65 5.1 21 16.6 102270 76
2006-06-29 12:13 51°19.62 2°56.391 5.5 23 16.6 102260 77
2006-06-29 12:14 51°19.567 2°56.141 6.7 22 16.6 102260 77
2006-06-29 12:15 51°19.512 2°55.903 5.4 23 16.6 102270 76
2006-06-29 12:16 51°19.459 2°55.673 5.2 27 16.5 102270 76
2006-06-29 12:17 51°19.407 2°55.442 5.3 26 16.5 102260 75
2006-06-29 12:18 51°19.353 2°55.211 6.1 24 16.6 102260 77
2006-06-29 12:19 51°19.303 2°54.98 5.8 21 16.5 102260 77
2006-06-29 12:20 51°19.251 2°54.751 6.1 25 16.5 102260 78
2006-06-29 12:21 51°19.202 2°54.522 6.6 23 16.5 102260 78
2006-06-29 12:22 51°19.149 2°54.293 6.4 21 16.4 102260 78
2006-06-29 12:23 51°19.099 2°54.061 5.4 29 16.4 102270 77
2006-06-29 12:24 51°19.047 2°53.827 5 14 16.4 102270 78
2006-06-29 12:25 51°19.001 2°53.6 6.7 26 16.5 102270 79
2006-06-29 12:26 51°18.952 2°53.367 6 28 16.4 102270 77
2006-06-29 12:27 51°18.906 2°53.136 5.8 25 16.4 102260 78
2006-06-29 12:28 51°18.859 2°52.909 4.9 26 16.6 102270 78
2006-06-29 12:29 51°18.811 2°52.68 5.8 21 16.5 102260 79
2006-06-29 12:30 51°18.765 2°52.449 6.2 29 16.4 102260 78
2006-06-29 12:31 51°18.724 2°52.239 4.1 28 16.3 102260 78
2006-06-29 12:32 51°18.689 2°52.067 6.9 29 16.4 102260 79
2006-06-29 12:33 51°18.654 2°51.899 6.5 33 16.4 102260 78
2006-06-29 12:34 51°18.621 2°51.745 5.8 34 16.4 102260 79
2006-06-29 12:35 51°18.584 2°51.579 5.3 32 16.3 102260 79
2006-06-29 12:36 51°18.549 2°51.417 5.4 28 16.4 102260 79
2006-06-29 12:37 51°18.514 2°51.256 5.5 27 16.4 102260 78
2006-06-29 12:38 51°18.489 2°51.112 7.5 29 16.4 102250 78
2006-06-29 12:39 51°18.477 2°51.015 8.2 26 16.3 102240 78
2006-06-29 12:40 51°18.462 2°50.993 7.8 26 16.3 102250 77
2006-06-29 12:41 51°18.441 2°50.983 9.3 33 16.3 102250 78
2006-06-29 12:42 51°18.423 2°50.969 7.1 38 16.3 102250 77
2006-06-29 12:43 51°18.404 2°50.95 8.5 35 16.3 102250 78
2006-06-29 12:44 51°18.388 2°50.93 7.6 31 16.3 102250 77
2006-06-29 12:45 51°18.376 2°50.898 7.8 23 16.3 102250 77
2006-06-29 12:46 51°18.377 2°50.858 6.4 9 16.4 102250 79
2006-06-29 12:47 51°18.382 2°50.818 8.5 9 16.3 102250 80
2006-06-29 12:48 51°18.391 2°50.78 8.8 360 16.3 102240 79
2006-06-29 12:49 51°18.402 2°50.742 7.9 2 16.4 102240 80
2006-06-29 12:50 51°18.411 2°50.701 7 8 16.3 102240 79
2006-06-29 12:51 51°18.422 2°50.66 7.3 5 16.3 102240 79
2006-06-29 12:52 51°18.434 2°50.625 7.8 359 16.3 102230 80
2006-06-29 12:53 51°18.447 2°50.595 9.3 358 16.3 102230 79
2006-06-29 12:54 51°18.46 2°50.565 9.7 357 16.3 102230 81
2006-06-29 12:55 51°18.473 2°50.537 9.3 -999 16.2 102220 79
2006-06-29 12:56 51°18.484 2°50.508 8.8 359 16.3 102220 78
2006-06-29 12:57 51°18.496 2°50.48 8.1 -999 16.3 102220 79
2006-06-29 12:58 51°18.508 2°50.454 9.5 359 16.4 102230 81
2006-06-29 12:59 51°18.52 2°50.433 8.7 354 16.3 102220 80
2006-06-29 13:00 51°18.533 2°50.418 9.6 355 16.3 102220 80
2006-06-29 13:01 51°18.546 2°50.405 8.5 357 16.3 102220 79
2006-06-29 13:02 51°18.564 2°50.39 9.4 356 16.2 102220 79
2006-06-29 13:03 51°18.609 2°50.394 12.1 334 16.2 102220 77
2006-06-29 13:04 51°18.652 2°50.516 11 27 16.3 102210 75
2006-06-29 13:05 51°18.611 2°50.699 10.7 246 16.4 102230 74
2006-06-29 13:06 51°18.482 2°50.884 9.3 25 16.6 102220 76
2006-06-29 13:07 51°18.317 2°51.092 10.5 245 16.7 102220 77
2006-06-29 13:08 51°18.148 2°51.313 10.5 20 16.8 102220 76
2006-06-29 13:09 51°17.979 2°51.518 8.9 249 16.9 102220 76
2006-06-29 13:10 51°17.8 2°51.719 9.3 249 16.9 102220 76
2006-06-29 13:11 51°17.622 2°51.917 9 247 17 102230 76
2006-06-29 13:12 51°17.434 2°52.077 8 248 16.9 102230 74
2006-06-29 13:13 51°17.241 2°52.229 6.8 249 17.1 102230 75
2006-06-29 13:14 51°17.044 2°52.386 8.7 255 17.1 102220 75
2006-06-29 13:15 51°16.851 2°52.531 7.6 247 17.1 102230 75
2006-06-29 13:16 51°16.658 2°52.691 8.7 23 17.2 102230 75
2006-06-29 13:17 51°16.466 2°52.853 8 250 17.2 102230 75
2006-06-29 13:18 51°16.263 2°52.974 6.2 255 17.2 102220 74
2006-06-29 13:19 51°16.058 2°53.073 8.9 255 17.3 102230 74
2006-06-29 13:20 51°15.854 2°53.182 6.6 254 17.3 102220 75
2006-06-29 13:21 51°15.648 2°53.296 8.3 253 17.3 102220 75
2006-06-29 13:22 51°15.45 2°53.358 3 264 17.3 102220 74
2006-06-29 13:23 51°15.244 2°53.384 8.2 255 17.2 102220 72
2006-06-29 13:24 51°15.054 2°53.531 9.1 248 17.2 102220 74
2006-06-29 13:25 51°14.902 2°53.772 10.2 25 17.3 102200 75
2006-06-29 13:26 51°14.753 2°54.02 8.7 244 17.3 102200 75
2006-06-29 13:27 51°14.608 2°54.273 11.8 243 17.2 102200 75
2006-06-29 13:28 51°14.508 2°54.579 13.1 23 17.2 102180 75
2006-06-29 13:29 51°14.417 2°54.879 11.4 26 17.2 102190 75
2006-06-29 13:30 51°14.32 2°55.143 8.9 22 17.1 102200 76
2006-06-29 13:31 51°14.232 2°55.312 8.6 254 17.1 102210 75
2006-06-29 13:32 51°14.132 2°55.407 5.5 264 17.1 102220 76
2006-06-29 13:33 51°14.032 2°55.48 6.4 21 17.2 102220 75
2006-06-29 13:34 51°13.935 2°55.552 3.5 248 17.3 102220 75
2006-06-29 13:35 51°13.849 2°55.615 7.7 259 17.4 102220 74
2006-06-29 13:36 51°13.777 2°55.679 4.2 254 17.4 102220 74
2006-06-29 13:37 51°13.723 2°55.767 8.5 253 17.4 102230 73
2006-06-29 13:38 51°13.678 2°55.865 11.1 254 17.5 102210 73
2006-06-29 13:39 51°13.642 2°55.957 8.1 26 17.5 102220 73
2006-06-29 13:40 51°13.617 2°56.038 6.5 244 17.6 102230 70
2006-06-29 13:41 51°13.605 2°56.088 6.6 250 17.7 102220 69
2006-06-29 13:42 51°13.601 2°56.096 5.7 256 17.7 102230 69